Aviation Digital Data Service (ADDS)

Output produced by METARs form (2022 UTC 22 November 2017)
found at http://aviationweather.gov/adds/metars/
 
KBPT 221722Z 2218/2318 36015G20KT P6SM SKC 
     FM230100 35009KT P6SM SKC